sensor_id;sensor_type;location;lat;lon;timestamp;P1;durP1;ratioP1;P2;durP2;ratioP2
38629;SDS011;24384;51.988;4.644;2023-11-21T00:01:05;12.75;;;5.38;;
38629;SDS011;24384;51.988;4.644;2023-11-21T00:03:33;12.40;;;4.03;;
38629;SDS011;24384;51.988;4.644;2023-11-21T00:05:59;25.75;;;3.42;;
38629;SDS011;24384;51.988;4.644;2023-11-21T00:08:25;76.22;;;5.70;;
38629;SDS011;24384;51.988;4.644;2023-11-21T00:10:51;11.75;;;2.60;;
38629;SDS011;24384;51.988;4.644;2023-11-21T00:13:16;8.80;;;4.55;;
38629;SDS011;24384;51.988;4.644;2023-11-21T00:15:42;6.78;;;4.95;;
38629;SDS011;24384;51.988;4.644;2023-11-21T00:18:08;8.63;;;4.13;;
38629;SDS011;24384;51.988;4.644;2023-11-21T00:20:33;8.60;;;3.88;;
38629;SDS011;24384;51.988;4.644;2023-11-21T00:22:58;6.60;;;3.50;;
38629;SDS011;24384;51.988;4.644;2023-11-21T00:25:24;10.18;;;4.10;;
38629;SDS011;24384;51.988;4.644;2023-11-21T00:27:50;5.10;;;3.05;;
38629;SDS011;24384;51.988;4.644;2023-11-21T00:30:15;8.30;;;3.13;;
38629;SDS011;24384;51.988;4.644;2023-11-21T00:32:40;7.97;;;3.25;;
38629;SDS011;24384;51.988;4.644;2023-11-21T00:35:06;11.57;;;3.30;;
38629;SDS011;24384;51.988;4.644;2023-11-21T00:37:32;9.95;;;3.55;;
38629;SDS011;24384;51.988;4.644;2023-11-21T00:39:57;8.57;;;3.88;;
38629;SDS011;24384;51.988;4.644;2023-11-21T00:42:23;7.70;;;3.25;;
38629;SDS011;24384;51.988;4.644;2023-11-21T00:44:48;5.20;;;3.35;;
38629;SDS011;24384;51.988;4.644;2023-11-21T00:47:13;5.15;;;2.90;;
38629;SDS011;24384;51.988;4.644;2023-11-21T00:49:38;5.53;;;2.92;;
38629;SDS011;24384;51.988;4.644;2023-11-21T00:52:04;4.97;;;3.10;;
38629;SDS011;24384;51.988;4.644;2023-11-21T00:54:29;5.82;;;2.65;;
38629;SDS011;24384;51.988;4.644;2023-11-21T00:56:55;9.18;;;4.05;;
38629;SDS011;24384;51.988;4.644;2023-11-21T00:59:20;6.50;;;4.00;;
38629;SDS011;24384;51.988;4.644;2023-11-21T01:01:47;11.48;;;4.00;;
38629;SDS011;24384;51.988;4.644;2023-11-21T01:04:13;11.85;;;5.55;;
38629;SDS011;24384;51.988;4.644;2023-11-21T01:06:38;8.82;;;4.57;;
38629;SDS011;24384;51.988;4.644;2023-11-21T01:09:03;9.85;;;4.47;;
38629;SDS011;24384;51.988;4.644;2023-11-21T01:11:33;7.60;;;4.45;;
38629;SDS011;24384;51.988;4.644;2023-11-21T01:14:02;12.15;;;5.60;;
38629;SDS011;24384;51.988;4.644;2023-11-21T01:16:29;14.23;;;5.60;;
38629;SDS011;24384;51.988;4.644;2023-11-21T01:18:54;14.73;;;6.30;;
38629;SDS011;24384;51.988;4.644;2023-11-21T01:21:19;9.50;;;5.82;;
38629;SDS011;24384;51.988;4.644;2023-11-21T01:23:45;15.68;;;6.53;;
38629;SDS011;24384;51.988;4.644;2023-11-21T01:26:10;15.35;;;5.53;;
38629;SDS011;24384;51.988;4.644;2023-11-21T01:28:36;19.25;;;6.72;;
38629;SDS011;24384;51.988;4.644;2023-11-21T01:31:01;23.55;;;7.30;;
38629;SDS011;24384;51.988;4.644;2023-11-21T01:33:26;16.42;;;7.07;;
38629;SDS011;24384;51.988;4.644;2023-11-21T01:35:52;14.65;;;7.40;;
38629;SDS011;24384;51.988;4.644;2023-11-21T01:38:19;16.30;;;7.13;;
38629;SDS011;24384;51.988;4.644;2023-11-21T01:40:45;15.38;;;6.40;;
38629;SDS011;24384;51.988;4.644;2023-11-21T01:43:10;16.40;;;6.72;;
38629;SDS011;24384;51.988;4.644;2023-11-21T01:45:35;16.63;;;6.72;;
38629;SDS011;24384;51.988;4.644;2023-11-21T01:48:01;16.08;;;6.97;;
38629;SDS011;24384;51.988;4.644;2023-11-21T01:50:27;15.75;;;6.88;;
38629;SDS011;24384;51.988;4.644;2023-11-21T01:52:53;13.02;;;6.43;;
38629;SDS011;24384;51.988;4.644;2023-11-21T01:55:19;22.30;;;7.32;;
38629;SDS011;24384;51.988;4.644;2023-11-21T01:57:45;14.85;;;5.90;;
38629;SDS011;24384;51.988;4.644;2023-11-21T02:00:12;10.32;;;6.03;;
38629;SDS011;24384;51.988;4.644;2023-11-21T02:02:50;17.48;;;6.38;;
38629;SDS011;24384;51.988;4.644;2023-11-21T02:05:16;16.58;;;6.57;;
38629;SDS011;24384;51.988;4.644;2023-11-21T02:07:43;14.77;;;6.75;;
38629;SDS011;24384;51.988;4.644;2023-11-21T02:10:09;11.65;;;6.43;;
38629;SDS011;24384;51.988;4.644;2023-11-21T02:12:40;16.10;;;6.20;;
38629;SDS011;24384;51.988;4.644;2023-11-21T02:15:12;17.40;;;6.68;;
38629;SDS011;24384;51.988;4.644;2023-11-21T02:17:53;14.68;;;7.88;;
38629;SDS011;24384;51.988;4.644;2023-11-21T02:20:20;18.10;;;8.13;;
38629;SDS011;24384;51.988;4.644;2023-11-21T02:22:51;16.13;;;7.47;;
38629;SDS011;24384;51.988;4.644;2023-11-21T02:25:26;19.40;;;8.07;;
38629;SDS011;24384;51.988;4.644;2023-11-21T02:27:53;16.73;;;6.47;;
38629;SDS011;24384;51.988;4.644;2023-11-21T02:30:23;14.38;;;6.72;;
38629;SDS011;24384;51.988;4.644;2023-11-21T02:32:51;20.60;;;7.50;;
38629;SDS011;24384;51.988;4.644;2023-11-21T02:35:22;23.27;;;7.88;;
38629;SDS011;24384;51.988;4.644;2023-11-21T02:37:51;22.00;;;7.18;;
38629;SDS011;24384;51.988;4.644;2023-11-21T02:40:18;14.00;;;8.32;;
38629;SDS011;24384;51.988;4.644;2023-11-21T02:42:45;19.90;;;7.38;;
38629;SDS011;24384;51.988;4.644;2023-11-21T02:45:12;16.85;;;7.03;;
38629;SDS011;24384;51.988;4.644;2023-11-21T02:47:39;18.50;;;6.97;;
38629;SDS011;24384;51.988;4.644;2023-11-21T02:50:05;17.45;;;7.88;;
38629;SDS011;24384;51.988;4.644;2023-11-21T02:52:32;19.90;;;7.47;;
38629;SDS011;24384;51.988;4.644;2023-11-21T02:54:58;18.95;;;7.75;;
38629;SDS011;24384;51.988;4.644;2023-11-21T02:57:23;17.95;;;9.38;;
38629;SDS011;24384;51.988;4.644;2023-11-21T02:59:51;22.50;;;7.78;;
38629;SDS011;24384;51.988;4.644;2023-11-21T03:02:16;21.40;;;8.82;;
38629;SDS011;24384;51.988;4.644;2023-11-21T03:04:42;16.52;;;7.75;;
38629;SDS011;24384;51.988;4.644;2023-11-21T03:07:07;15.75;;;7.10;;
38629;SDS011;24384;51.988;4.644;2023-11-21T03:09:34;19.30;;;8.70;;
38629;SDS011;24384;51.988;4.644;2023-11-21T03:12:00;19.92;;;8.23;;
38629;SDS011;24384;51.988;4.644;2023-11-21T03:14:25;16.83;;;8.02;;
38629;SDS011;24384;51.988;4.644;2023-11-21T03:16:51;17.33;;;9.00;;
38629;SDS011;24384;51.988;4.644;2023-11-21T03:19:16;15.85;;;7.60;;
38629;SDS011;24384;51.988;4.644;2023-11-21T03:21:42;23.65;;;8.75;;
38629;SDS011;24384;51.988;4.644;2023-11-21T03:24:07;20.50;;;8.73;;
38629;SDS011;24384;51.988;4.644;2023-11-21T03:26:33;17.25;;;8.30;;
38629;SDS011;24384;51.988;4.644;2023-11-21T03:28:58;17.27;;;7.70;;
38629;SDS011;24384;51.988;4.644;2023-11-21T03:31:23;14.88;;;7.57;;
38629;SDS011;24384;51.988;4.644;2023-11-21T03:33:50;19.15;;;8.70;;
38629;SDS011;24384;51.988;4.644;2023-11-21T03:36:15;20.63;;;8.63;;
38629;SDS011;24384;51.988;4.644;2023-11-21T03:38:41;21.58;;;8.65;;
38629;SDS011;24384;51.988;4.644;2023-11-21T03:41:06;14.68;;;7.40;;
38629;SDS011;24384;51.988;4.644;2023-11-21T03:43:32;18.92;;;8.88;;
38629;SDS011;24384;51.988;4.644;2023-11-21T03:45:57;17.13;;;8.32;;
38629;SDS011;24384;51.988;4.644;2023-11-21T03:48:22;23.60;;;7.93;;
38629;SDS011;24384;51.988;4.644;2023-11-21T03:50:48;13.82;;;7.28;;
38629;SDS011;24384;51.988;4.644;2023-11-21T03:53:13;22.08;;;9.15;;
38629;SDS011;24384;51.988;4.644;2023-11-21T03:55:39;17.42;;;8.20;;
38629;SDS011;24384;51.988;4.644;2023-11-21T03:58:04;16.05;;;7.85;;
38629;SDS011;24384;51.988;4.644;2023-11-21T04:00:29;23.77;;;9.43;;
38629;SDS011;24384;51.988;4.644;2023-11-21T04:02:54;15.63;;;8.63;;
38629;SDS011;24384;51.988;4.644;2023-11-21T04:05:21;22.92;;;8.82;;
38629;SDS011;24384;51.988;4.644;2023-11-21T04:07:49;21.48;;;8.40;;
38629;SDS011;24384;51.988;4.644;2023-11-21T04:10:15;17.52;;;7.72;;
38629;SDS011;24384;51.988;4.644;2023-11-21T04:12:40;19.50;;;9.73;;
38629;SDS011;24384;51.988;4.644;2023-11-21T04:15:06;18.60;;;8.35;;
38629;SDS011;24384;51.988;4.644;2023-11-21T04:17:33;21.60;;;8.60;;
38629;SDS011;24384;51.988;4.644;2023-11-21T04:20:00;27.20;;;9.85;;
38629;SDS011;24384;51.988;4.644;2023-11-21T04:22:25;15.60;;;8.77;;
38629;SDS011;24384;51.988;4.644;2023-11-21T04:24:50;15.77;;;7.22;;
38629;SDS011;24384;51.988;4.644;2023-11-21T04:27:16;22.40;;;8.27;;
38629;SDS011;24384;51.988;4.644;2023-11-21T04:29:43;20.25;;;8.00;;
38629;SDS011;24384;51.988;4.644;2023-11-21T04:32:09;21.13;;;8.85;;
38629;SDS011;24384;51.988;4.644;2023-11-21T04:34:34;14.80;;;7.13;;
38629;SDS011;24384;51.988;4.644;2023-11-21T04:37:00;16.67;;;7.65;;
38629;SDS011;24384;51.988;4.644;2023-11-21T04:39:25;18.20;;;7.57;;
38629;SDS011;24384;51.988;4.644;2023-11-21T04:41:51;19.40;;;7.70;;
38629;SDS011;24384;51.988;4.644;2023-11-21T04:44:16;16.67;;;7.20;;
38629;SDS011;24384;51.988;4.644;2023-11-21T04:46:42;15.63;;;6.93;;
38629;SDS011;24384;51.988;4.644;2023-11-21T04:49:07;19.63;;;7.72;;
38629;SDS011;24384;51.988;4.644;2023-11-21T04:51:32;21.45;;;8.70;;
38629;SDS011;24384;51.988;4.644;2023-11-21T04:53:58;14.85;;;7.57;;
38629;SDS011;24384;51.988;4.644;2023-11-21T04:56:23;17.67;;;7.82;;
38629;SDS011;24384;51.988;4.644;2023-11-21T04:58:48;11.60;;;6.85;;
38629;SDS011;24384;51.988;4.644;2023-11-21T05:01:15;17.38;;;7.20;;
38629;SDS011;24384;51.988;4.644;2023-11-21T05:03:40;18.63;;;9.18;;
38629;SDS011;24384;51.988;4.644;2023-11-21T05:06:06;18.52;;;8.48;;
38629;SDS011;24384;51.988;4.644;2023-11-21T05:08:34;16.60;;;8.98;;
38629;SDS011;24384;51.988;4.644;2023-11-21T05:10:59;18.30;;;7.63;;
38629;SDS011;24384;51.988;4.644;2023-11-21T05:13:24;16.75;;;8.32;;
38629;SDS011;24384;51.988;4.644;2023-11-21T05:15:54;21.10;;;8.93;;
38629;SDS011;24384;51.988;4.644;2023-11-21T05:18:23;19.05;;;9.40;;
38629;SDS011;24384;51.988;4.644;2023-11-21T05:20:48;18.42;;;8.65;;
38629;SDS011;24384;51.988;4.644;2023-11-21T05:23:13;21.45;;;8.73;;
38629;SDS011;24384;51.988;4.644;2023-11-21T05:25:39;21.77;;;8.63;;
38629;SDS011;24384;51.988;4.644;2023-11-21T05:28:06;16.60;;;8.38;;
38629;SDS011;24384;51.988;4.644;2023-11-21T05:30:31;12.70;;;7.68;;
38629;SDS011;24384;51.988;4.644;2023-11-21T05:32:57;15.70;;;7.47;;
38629;SDS011;24384;51.988;4.644;2023-11-21T05:35:22;18.00;;;7.63;;
38629;SDS011;24384;51.988;4.644;2023-11-21T05:37:48;16.23;;;6.88;;
38629;SDS011;24384;51.988;4.644;2023-11-21T05:40:16;16.30;;;7.50;;
38629;SDS011;24384;51.988;4.644;2023-11-21T05:42:42;11.65;;;6.88;;
38629;SDS011;24384;51.988;4.644;2023-11-21T05:45:07;16.73;;;7.30;;
38629;SDS011;24384;51.988;4.644;2023-11-21T05:47:37;16.50;;;7.22;;
38629;SDS011;24384;51.988;4.644;2023-11-21T05:50:07;19.25;;;6.57;;
38629;SDS011;24384;51.988;4.644;2023-11-21T05:52:40;12.30;;;7.07;;
38629;SDS011;24384;51.988;4.644;2023-11-21T05:55:06;11.02;;;6.45;;
38629;SDS011;24384;51.988;4.644;2023-11-21T05:57:33;13.85;;;7.35;;
38629;SDS011;24384;51.988;4.644;2023-11-21T06:00:06;13.18;;;6.93;;
38629;SDS011;24384;51.988;4.644;2023-11-21T06:02:36;14.63;;;8.07;;
38629;SDS011;24384;51.988;4.644;2023-11-21T06:05:03;12.68;;;6.35;;
38629;SDS011;24384;51.988;4.644;2023-11-21T06:07:29;11.98;;;6.43;;
38629;SDS011;24384;51.988;4.644;2023-11-21T06:09:54;12.38;;;6.75;;
38629;SDS011;24384;51.988;4.644;2023-11-21T06:12:19;12.13;;;6.20;;
38629;SDS011;24384;51.988;4.644;2023-11-21T06:14:45;19.50;;;7.25;;
38629;SDS011;24384;51.988;4.644;2023-11-21T06:17:11;15.32;;;7.03;;
38629;SDS011;24384;51.988;4.644;2023-11-21T06:19:36;12.20;;;6.43;;
38629;SDS011;24384;51.988;4.644;2023-11-21T06:22:01;10.20;;;5.97;;
38629;SDS011;24384;51.988;4.644;2023-11-21T06:24:26;9.38;;;6.30;;
38629;SDS011;24384;51.988;4.644;2023-11-21T06:26:52;15.68;;;6.30;;
38629;SDS011;24384;51.988;4.644;2023-11-21T06:29:17;10.38;;;5.85;;
38629;SDS011;24384;51.988;4.644;2023-11-21T06:31:42;8.18;;;5.18;;
38629;SDS011;24384;51.988;4.644;2023-11-21T06:34:08;11.52;;;5.57;;
38629;SDS011;24384;51.988;4.644;2023-11-21T06:36:34;14.25;;;5.65;;
38629;SDS011;24384;51.988;4.644;2023-11-21T06:39:00;10.50;;;5.47;;
38629;SDS011;24384;51.988;4.644;2023-11-21T06:41:26;13.32;;;5.55;;
38629;SDS011;24384;51.988;4.644;2023-11-21T06:43:51;11.18;;;5.00;;
38629;SDS011;24384;51.988;4.644;2023-11-21T06:46:16;10.05;;;4.90;;
38629;SDS011;24384;51.988;4.644;2023-11-21T06:48:42;8.30;;;4.63;;
38629;SDS011;24384;51.988;4.644;2023-11-21T06:51:07;8.95;;;4.72;;
38629;SDS011;24384;51.988;4.644;2023-11-21T06:53:33;7.40;;;4.15;;
38629;SDS011;24384;51.988;4.644;2023-11-21T06:56:00;8.30;;;4.43;;
38629;SDS011;24384;51.988;4.644;2023-11-21T06:58:25;12.27;;;3.78;;
38629;SDS011;24384;51.988;4.644;2023-11-21T07:00:50;7.00;;;4.28;;
38629;SDS011;24384;51.988;4.644;2023-11-21T07:03:17;13.20;;;4.13;;
38629;SDS011;24384;51.988;4.644;2023-11-21T07:05:44;9.65;;;3.92;;
38629;SDS011;24384;51.988;4.644;2023-11-21T07:08:09;9.95;;;4.30;;
38629;SDS011;24384;51.988;4.644;2023-11-21T07:10:35;11.63;;;4.75;;
38629;SDS011;24384;51.988;4.644;2023-11-21T07:13:01;13.68;;;4.07;;
38629;SDS011;24384;51.988;4.644;2023-11-21T07:15:27;6.13;;;4.07;;
38629;SDS011;24384;51.988;4.644;2023-11-21T07:17:52;15.30;;;4.60;;
38629;SDS011;24384;51.988;4.644;2023-11-21T07:20:19;13.38;;;4.40;;
38629;SDS011;24384;51.988;4.644;2023-11-21T07:22:45;11.43;;;5.18;;
38629;SDS011;24384;51.988;4.644;2023-11-21T07:25:10;11.10;;;4.70;;
38629;SDS011;24384;51.988;4.644;2023-11-21T07:27:36;17.45;;;5.20;;
38629;SDS011;24384;51.988;4.644;2023-11-21T07:30:02;10.10;;;4.28;;
38629;SDS011;24384;51.988;4.644;2023-11-21T07:32:30;12.82;;;4.68;;
38629;SDS011;24384;51.988;4.644;2023-11-21T07:34:56;13.27;;;3.97;;
38629;SDS011;24384;51.988;4.644;2023-11-21T07:37:23;13.15;;;4.50;;
38629;SDS011;24384;51.988;4.644;2023-11-21T07:39:48;10.82;;;4.25;;
38629;SDS011;24384;51.988;4.644;2023-11-21T07:42:13;12.50;;;3.35;;
38629;SDS011;24384;51.988;4.644;2023-11-21T07:44:39;11.15;;;4.43;;
38629;SDS011;24384;51.988;4.644;2023-11-21T07:47:04;13.38;;;5.03;;
38629;SDS011;24384;51.988;4.644;2023-11-21T07:49:29;11.15;;;4.05;;
38629;SDS011;24384;51.988;4.644;2023-11-21T07:51:55;8.52;;;4.13;;
38629;SDS011;24384;51.988;4.644;2023-11-21T07:54:20;11.20;;;4.30;;
38629;SDS011;24384;51.988;4.644;2023-11-21T07:56:46;10.52;;;4.40;;
38629;SDS011;24384;51.988;4.644;2023-11-21T07:59:11;13.60;;;4.28;;
38629;SDS011;24384;51.988;4.644;2023-11-21T08:01:37;11.95;;;4.63;;
38629;SDS011;24384;51.988;4.644;2023-11-21T08:04:02;11.05;;;4.20;;
38629;SDS011;24384;51.988;4.644;2023-11-21T08:06:28;10.07;;;4.38;;
38629;SDS011;24384;51.988;4.644;2023-11-21T08:08:54;13.32;;;5.55;;
38629;SDS011;24384;51.988;4.644;2023-11-21T08:11:19;10.52;;;4.70;;
38629;SDS011;24384;51.988;4.644;2023-11-21T08:13:44;10.93;;;5.10;;
38629;SDS011;24384;51.988;4.644;2023-11-21T08:16:10;14.82;;;4.68;;
38629;SDS011;24384;51.988;4.644;2023-11-21T08:18:35;8.80;;;5.00;;
38629;SDS011;24384;51.988;4.644;2023-11-21T08:21:00;8.63;;;5.22;;
38629;SDS011;24384;51.988;4.644;2023-11-21T08:23:26;7.93;;;5.57;;
38629;SDS011;24384;51.988;4.644;2023-11-21T08:25:52;12.63;;;5.43;;
38629;SDS011;24384;51.988;4.644;2023-11-21T08:28:19;8.95;;;5.30;;
38629;SDS011;24384;51.988;4.644;2023-11-21T08:30:45;11.13;;;6.00;;
38629;SDS011;24384;51.988;4.644;2023-11-21T08:33:10;15.05;;;6.63;;
38629;SDS011;24384;51.988;4.644;2023-11-21T08:35:38;14.25;;;6.32;;
38629;SDS011;24384;51.988;4.644;2023-11-21T08:38:04;15.65;;;5.82;;
38629;SDS011;24384;51.988;4.644;2023-11-21T08:40:29;16.83;;;5.78;;
38629;SDS011;24384;51.988;4.644;2023-11-21T08:42:55;16.65;;;6.10;;
38629;SDS011;24384;51.988;4.644;2023-11-21T08:45:21;10.70;;;5.38;;
38629;SDS011;24384;51.988;4.644;2023-11-21T08:47:47;14.45;;;5.50;;
38629;SDS011;24384;51.988;4.644;2023-11-21T08:50:12;11.32;;;5.65;;
38629;SDS011;24384;51.988;4.644;2023-11-21T08:52:38;15.27;;;5.72;;
38629;SDS011;24384;51.988;4.644;2023-11-21T08:55:05;11.25;;;5.43;;
38629;SDS011;24384;51.988;4.644;2023-11-21T08:57:34;11.88;;;6.30;;
38629;SDS011;24384;51.988;4.644;2023-11-21T09:00:00;12.63;;;5.50;;
38629;SDS011;24384;51.988;4.644;2023-11-21T09:02:26;11.63;;;5.85;;
38629;SDS011;24384;51.988;4.644;2023-11-21T09:04:52;10.93;;;6.45;;
38629;SDS011;24384;51.988;4.644;2023-11-21T09:07:18;12.63;;;5.20;;
38629;SDS011;24384;51.988;4.644;2023-11-21T09:09:45;11.40;;;5.55;;
38629;SDS011;24384;51.988;4.644;2023-11-21T09:12:14;10.80;;;5.93;;
38629;SDS011;24384;51.988;4.644;2023-11-21T09:14:39;11.68;;;5.93;;
38629;SDS011;24384;51.988;4.644;2023-11-21T09:17:05;11.20;;;6.50;;
38629;SDS011;24384;51.988;4.644;2023-11-21T09:19:36;9.20;;;5.63;;
38629;SDS011;24384;51.988;4.644;2023-11-21T09:22:14;13.15;;;6.18;;
38629;SDS011;24384;51.988;4.644;2023-11-21T09:24:40;14.80;;;7.68;;
38629;SDS011;24384;51.988;4.644;2023-11-21T09:27:05;13.40;;;6.28;;
38629;SDS011;24384;51.988;4.644;2023-11-21T09:29:30;11.43;;;6.10;;
38629;SDS011;24384;51.988;4.644;2023-11-21T09:31:56;11.95;;;5.90;;
38629;SDS011;24384;51.988;4.644;2023-11-21T09:34:24;12.52;;;6.15;;
38629;SDS011;24384;51.988;4.644;2023-11-21T09:36:50;9.68;;;5.70;;
38629;SDS011;24384;51.988;4.644;2023-11-21T09:39:16;8.80;;;5.68;;
38629;SDS011;24384;51.988;4.644;2023-11-21T09:44:14;9.07;;;4.40;;
38629;SDS011;24384;51.988;4.644;2023-11-21T09:46:43;10.38;;;5.35;;
38629;SDS011;24384;51.988;4.644;2023-11-21T09:49:13;9.02;;;5.18;;
38629;SDS011;24384;51.988;4.644;2023-11-21T09:51:41;8.50;;;4.20;;
38629;SDS011;24384;51.988;4.644;2023-11-21T09:54:08;11.52;;;4.40;;
38629;SDS011;24384;51.988;4.644;2023-11-21T09:56:35;6.60;;;4.28;;
38629;SDS011;24384;51.988;4.644;2023-11-21T09:59:02;6.47;;;4.25;;
38629;SDS011;24384;51.988;4.644;2023-11-21T10:01:32;7.05;;;4.13;;
38629;SDS011;24384;51.988;4.644;2023-11-21T10:03:58;6.28;;;3.22;;
38629;SDS011;24384;51.988;4.644;2023-11-21T10:06:24;8.77;;;4.13;;
38629;SDS011;24384;51.988;4.644;2023-11-21T10:08:52;8.68;;;4.53;;
38629;SDS011;24384;51.988;4.644;2023-11-21T10:11:18;9.18;;;4.70;;
38629;SDS011;24384;51.988;4.644;2023-11-21T10:13:46;10.70;;;4.53;;
38629;SDS011;24384;51.988;4.644;2023-11-21T10:16:15;10.23;;;5.43;;
38629;SDS011;24384;51.988;4.644;2023-11-21T10:18:48;8.05;;;4.35;;
38629;SDS011;24384;51.988;4.644;2023-11-21T10:21:17;7.65;;;4.75;;
38629;SDS011;24384;51.988;4.644;2023-11-21T10:23:43;10.07;;;4.72;;
38629;SDS011;24384;51.988;4.644;2023-11-21T10:26:09;12.25;;;5.40;;
38629;SDS011;24384;51.988;4.644;2023-11-21T10:28:41;13.13;;;5.78;;
38629;SDS011;24384;51.988;4.644;2023-11-21T10:31:07;7.93;;;5.20;;
38629;SDS011;24384;51.988;4.644;2023-11-21T10:33:32;8.93;;;5.00;;
38629;SDS011;24384;51.988;4.644;2023-11-21T10:35:58;8.73;;;5.18;;
38629;SDS011;24384;51.988;4.644;2023-11-21T10:38:24;9.65;;;5.40;;
38629;SDS011;24384;51.988;4.644;2023-11-21T10:40:52;8.65;;;5.65;;
38629;SDS011;24384;51.988;4.644;2023-11-21T10:43:20;10.77;;;6.28;;
38629;SDS011;24384;51.988;4.644;2023-11-21T10:45:49;10.25;;;5.97;;
38629;SDS011;24384;51.988;4.644;2023-11-21T10:48:14;8.32;;;4.85;;
38629;SDS011;24384;51.988;4.644;2023-11-21T10:50:40;10.45;;;4.93;;
38629;SDS011;24384;51.988;4.644;2023-11-21T10:53:06;8.43;;;4.80;;
38629;SDS011;24384;51.988;4.644;2023-11-21T10:55:32;9.25;;;4.63;;
38629;SDS011;24384;51.988;4.644;2023-11-21T10:58:00;8.57;;;6.10;;
38629;SDS011;24384;51.988;4.644;2023-11-21T11:00:27;8.73;;;5.70;;
38629;SDS011;24384;51.988;4.644;2023-11-21T11:02:54;12.32;;;6.85;;
38629;SDS011;24384;51.988;4.644;2023-11-21T11:05:21;11.70;;;6.95;;
38629;SDS011;24384;51.988;4.644;2023-11-21T11:07:50;11.32;;;7.47;;
38629;SDS011;24384;51.988;4.644;2023-11-21T11:10:36;11.75;;;7.15;;
38629;SDS011;24384;51.988;4.644;2023-11-21T11:13:03;12.02;;;7.75;;
38629;SDS011;24384;51.988;4.644;2023-11-21T11:15:29;14.95;;;6.97;;
38629;SDS011;24384;51.988;4.644;2023-11-21T11:17:54;10.50;;;7.30;;
38629;SDS011;24384;51.988;4.644;2023-11-21T11:20:25;13.80;;;7.28;;
38629;SDS011;24384;51.988;4.644;2023-11-21T11:28:11;12.85;;;6.95;;
38629;SDS011;24384;51.988;4.644;2023-11-21T11:33:52;12.55;;;6.95;;
38629;SDS011;24384;51.988;4.644;2023-11-21T11:39:02;8.30;;;5.53;;
38629;SDS011;24384;51.988;4.644;2023-11-21T11:41:30;9.73;;;5.95;;
38629;SDS011;24384;51.988;4.644;2023-11-21T11:43:57;9.48;;;4.55;;
38629;SDS011;24384;51.988;4.644;2023-11-21T11:46:42;6.82;;;4.07;;
38629;SDS011;24384;51.988;4.644;2023-11-21T11:49:11;9.60;;;5.32;;
38629;SDS011;24384;51.988;4.644;2023-11-21T11:52:03;14.35;;;5.35;;
38629;SDS011;24384;51.988;4.644;2023-11-21T11:54:55;7.70;;;5.53;;
38629;SDS011;24384;51.988;4.644;2023-11-21T11:57:23;8.77;;;5.40;;
38629;SDS011;24384;51.988;4.644;2023-11-21T12:02:40;7.97;;;4.53;;
38629;SDS011;24384;51.988;4.644;2023-11-21T12:05:08;12.13;;;4.82;;
38629;SDS011;24384;51.988;4.644;2023-11-21T12:07:44;7.97;;;4.20;;
38629;SDS011;24384;51.988;4.644;2023-11-21T12:10:19;9.35;;;5.45;;
38629;SDS011;24384;51.988;4.644;2023-11-21T12:12:59;10.60;;;5.88;;
38629;SDS011;24384;51.988;4.644;2023-11-21T12:15:32;10.75;;;5.90;;
38629;SDS011;24384;51.988;4.644;2023-11-21T12:17:57;10.77;;;5.93;;
38629;SDS011;24384;51.988;4.644;2023-11-21T12:20:24;9.75;;;5.72;;
38629;SDS011;24384;51.988;4.644;2023-11-21T12:22:51;13.77;;;6.88;;
38629;SDS011;24384;51.988;4.644;2023-11-21T12:25:21;12.13;;;7.07;;
38629;SDS011;24384;51.988;4.644;2023-11-21T12:27:50;13.45;;;7.15;;
38629;SDS011;24384;51.988;4.644;2023-11-21T12:30:20;14.63;;;6.80;;
38629;SDS011;24384;51.988;4.644;2023-11-21T12:32:48;13.30;;;8.02;;
38629;SDS011;24384;51.988;4.644;2023-11-21T12:35:16;12.95;;;7.43;;
38629;SDS011;24384;51.988;4.644;2023-11-21T12:37:44;13.25;;;7.95;;
38629;SDS011;24384;51.988;4.644;2023-11-21T12:40:10;14.57;;;7.53;;
38629;SDS011;24384;51.988;4.644;2023-11-21T12:42:40;13.50;;;7.53;;
38629;SDS011;24384;51.988;4.644;2023-11-21T12:47:57;11.85;;;6.40;;
38629;SDS011;24384;51.988;4.644;2023-11-21T12:50:25;11.02;;;7.25;;
38629;SDS011;24384;51.988;4.644;2023-11-21T12:53:10;13.52;;;6.78;;
38629;SDS011;24384;51.988;4.644;2023-11-21T12:55:43;13.35;;;7.90;;
38629;SDS011;24384;51.988;4.644;2023-11-21T12:58:14;11.38;;;7.40;;
38629;SDS011;24384;51.988;4.644;2023-11-21T13:00:42;11.07;;;6.95;;
38629;SDS011;24384;51.988;4.644;2023-11-21T13:03:10;12.05;;;7.03;;
38629;SDS011;24384;51.988;4.644;2023-11-21T13:05:38;13.77;;;8.27;;
38629;SDS011;24384;51.988;4.644;2023-11-21T13:08:05;10.85;;;6.45;;
38629;SDS011;24384;51.988;4.644;2023-11-21T13:10:34;13.48;;;6.97;;
38629;SDS011;24384;51.988;4.644;2023-11-21T13:13:05;12.77;;;7.18;;
38629;SDS011;24384;51.988;4.644;2023-11-21T13:15:34;11.15;;;7.03;;
38629;SDS011;24384;51.988;4.644;2023-11-21T13:18:03;11.95;;;8.02;;
38629;SDS011;24384;51.988;4.644;2023-11-21T13:20:28;10.60;;;7.32;;
38629;SDS011;24384;51.988;4.644;2023-11-21T13:22:55;12.18;;;7.43;;
38629;SDS011;24384;51.988;4.644;2023-11-21T13:25:26;11.70;;;7.30;;
38629;SDS011;24384;51.988;4.644;2023-11-21T13:27:55;10.10;;;6.90;;
38629;SDS011;24384;51.988;4.644;2023-11-21T13:30:23;12.05;;;6.70;;
38629;SDS011;24384;51.988;4.644;2023-11-21T13:32:54;11.00;;;7.75;;
38629;SDS011;24384;51.988;4.644;2023-11-21T13:35:23;10.77;;;7.32;;
38629;SDS011;24384;51.988;4.644;2023-11-21T13:38:06;13.32;;;7.57;;
38629;SDS011;24384;51.988;4.644;2023-11-21T13:40:33;10.57;;;7.50;;
38629;SDS011;24384;51.988;4.644;2023-11-21T13:43:04;10.93;;;7.80;;
38629;SDS011;24384;51.988;4.644;2023-11-21T13:45:34;12.77;;;7.55;;
38629;SDS011;24384;51.988;4.644;2023-11-21T13:48:04;12.70;;;8.15;;
38629;SDS011;24384;51.988;4.644;2023-11-21T13:50:34;14.65;;;9.60;;
38629;SDS011;24384;51.988;4.644;2023-11-21T13:53:00;12.55;;;7.80;;
38629;SDS011;24384;51.988;4.644;2023-11-21T13:55:41;13.35;;;8.23;;
38629;SDS011;24384;51.988;4.644;2023-11-21T13:58:06;15.00;;;8.77;;
38629;SDS011;24384;51.988;4.644;2023-11-21T14:00:36;13.70;;;8.40;;
38629;SDS011;24384;51.988;4.644;2023-11-21T14:03:06;14.30;;;9.35;;
38629;SDS011;24384;51.988;4.644;2023-11-21T14:05:44;16.10;;;9.27;;
38629;SDS011;24384;51.988;4.644;2023-11-21T14:08:12;16.73;;;10.32;;
38629;SDS011;24384;51.988;4.644;2023-11-21T14:10:41;15.18;;;9.48;;
38629;SDS011;24384;51.988;4.644;2023-11-21T14:13:15;13.90;;;10.02;;
38629;SDS011;24384;51.988;4.644;2023-11-21T14:15:48;18.45;;;9.48;;
38629;SDS011;24384;51.988;4.644;2023-11-21T14:18:15;15.45;;;9.98;;
38629;SDS011;24384;51.988;4.644;2023-11-21T14:20:42;20.65;;;11.05;;
38629;SDS011;24384;51.988;4.644;2023-11-21T14:23:09;15.82;;;11.20;;
38629;SDS011;24384;51.988;4.644;2023-11-21T14:25:35;13.73;;;9.57;;
38629;SDS011;24384;51.988;4.644;2023-11-21T14:28:02;18.75;;;10.25;;
38629;SDS011;24384;51.988;4.644;2023-11-21T14:30:28;14.82;;;9.77;;
38629;SDS011;24384;51.988;4.644;2023-11-21T14:32:56;14.75;;;9.68;;
38629;SDS011;24384;51.988;4.644;2023-11-21T14:35:22;15.15;;;9.68;;
38629;SDS011;24384;51.988;4.644;2023-11-21T14:37:47;15.43;;;9.90;;
38629;SDS011;24384;51.988;4.644;2023-11-21T14:40:13;15.57;;;10.45;;
38629;SDS011;24384;51.988;4.644;2023-11-21T14:42:40;14.90;;;8.95;;
38629;SDS011;24384;51.988;4.644;2023-11-21T14:45:06;15.63;;;9.90;;
38629;SDS011;24384;51.988;4.644;2023-11-21T14:47:37;16.42;;;10.40;;
38629;SDS011;24384;51.988;4.644;2023-11-21T14:50:03;19.08;;;11.93;;
38629;SDS011;24384;51.988;4.644;2023-11-21T14:52:48;16.08;;;10.98;;
38629;SDS011;24384;51.988;4.644;2023-11-21T14:55:24;16.13;;;9.63;;